sensor_id;sensor_type;location;lat;lon;timestamp;temperature;humidity
7307;DHT22;3694;48.732;9.248;2023-05-29T00:01:26;14.20;70.10
7307;DHT22;3694;48.732;9.248;2023-05-29T00:03:52;14.00;70.60
7307;DHT22;3694;48.732;9.248;2023-05-29T00:06:19;13.90;71.20
7307;DHT22;3694;48.732;9.248;2023-05-29T00:08:44;13.80;72.00
7307;DHT22;3694;48.732;9.248;2023-05-29T00:11:10;13.60;72.20
7307;DHT22;3694;48.732;9.248;2023-05-29T00:13:35;13.50;73.20
7307;DHT22;3694;48.732;9.248;2023-05-29T00:16:01;13.40;74.00
7307;DHT22;3694;48.732;9.248;2023-05-29T00:18:28;13.40;74.30
7307;DHT22;3694;48.732;9.248;2023-05-29T00:20:54;13.50;74.20
7307;DHT22;3694;48.732;9.248;2023-05-29T00:23:21;13.50;74.20
7307;DHT22;3694;48.732;9.248;2023-05-29T00:25:46;13.70;74.00
7307;DHT22;3694;48.732;9.248;2023-05-29T00:28:12;13.50;74.50
7307;DHT22;3694;48.732;9.248;2023-05-29T00:30:38;13.60;74.80
7307;DHT22;3694;48.732;9.248;2023-05-29T00:33:04;13.50;74.50
7307;DHT22;3694;48.732;9.248;2023-05-29T00:35:30;13.50;75.50
7307;DHT22;3694;48.732;9.248;2023-05-29T00:37:57;13.40;76.10
7307;DHT22;3694;48.732;9.248;2023-05-29T00:40:23;13.20;77.30
7307;DHT22;3694;48.732;9.248;2023-05-29T00:42:48;12.80;77.80
7307;DHT22;3694;48.732;9.248;2023-05-29T00:45:14;12.70;77.90
7307;DHT22;3694;48.732;9.248;2023-05-29T00:47:41;12.80;78.00
7307;DHT22;3694;48.732;9.248;2023-05-29T00:50:08;12.90;78.40
7307;DHT22;3694;48.732;9.248;2023-05-29T00:52:37;12.90;78.30
7307;DHT22;3694;48.732;9.248;2023-05-29T00:55:03;12.90;78.30
7307;DHT22;3694;48.732;9.248;2023-05-29T00:57:30;12.80;78.50
7307;DHT22;3694;48.732;9.248;2023-05-29T00:59:55;12.80;79.20
7307;DHT22;3694;48.732;9.248;2023-05-29T01:02:21;12.80;79.20
7307;DHT22;3694;48.732;9.248;2023-05-29T01:04:47;12.70;79.50
7307;DHT22;3694;48.732;9.248;2023-05-29T01:07:13;12.70;80.30
7307;DHT22;3694;48.732;9.248;2023-05-29T01:09:39;12.50;81.10
7307;DHT22;3694;48.732;9.248;2023-05-29T01:20:49;12.10;83.50
7307;DHT22;3694;48.732;9.248;2023-05-29T01:28:33;11.80;86.50
7307;DHT22;3694;48.732;9.248;2023-05-29T01:31:04;11.70;87.10
7307;DHT22;3694;48.732;9.248;2023-05-29T01:33:29;11.50;88.20
7307;DHT22;3694;48.732;9.248;2023-05-29T01:35:55;11.40;88.90
7307;DHT22;3694;48.732;9.248;2023-05-29T01:38:20;11.30;89.20
7307;DHT22;3694;48.732;9.248;2023-05-29T01:40:47;11.20;90.30
7307;DHT22;3694;48.732;9.248;2023-05-29T01:43:13;11.00;90.90
7307;DHT22;3694;48.732;9.248;2023-05-29T01:45:39;10.80;91.60
7307;DHT22;3694;48.732;9.248;2023-05-29T01:48:06;10.80;92.10
7307;DHT22;3694;48.732;9.248;2023-05-29T01:50:32;10.80;92.50
7307;DHT22;3694;48.732;9.248;2023-05-29T01:52:57;10.70;93.00
7307;DHT22;3694;48.732;9.248;2023-05-29T01:55:23;10.50;93.50
7307;DHT22;3694;48.732;9.248;2023-05-29T01:57:49;10.40;94.10
7307;DHT22;3694;48.732;9.248;2023-05-29T02:00:17;10.30;94.60
7307;DHT22;3694;48.732;9.248;2023-05-29T02:02:42;10.30;94.80
7307;DHT22;3694;48.732;9.248;2023-05-29T02:05:08;10.20;95.20
7307;DHT22;3694;48.732;9.248;2023-05-29T02:07:37;10.20;95.70
7307;DHT22;3694;48.732;9.248;2023-05-29T02:10:07;10.10;96.20
7307;DHT22;3694;48.732;9.248;2023-05-29T02:12:32;9.90;96.90
7307;DHT22;3694;48.732;9.248;2023-05-29T02:14:58;10.00;96.70
7307;DHT22;3694;48.732;9.248;2023-05-29T02:17:23;10.00;97.20
7307;DHT22;3694;48.732;9.248;2023-05-29T02:19:50;9.90;97.80
7307;DHT22;3694;48.732;9.248;2023-05-29T02:22:16;9.70;98.20
7307;DHT22;3694;48.732;9.248;2023-05-29T02:24:42;9.60;98.40
7307;DHT22;3694;48.732;9.248;2023-05-29T02:27:08;9.60;98.60
7307;DHT22;3694;48.732;9.248;2023-05-29T02:29:34;9.60;99.20
7307;DHT22;3694;48.732;9.248;2023-05-29T02:32:00;9.50;99.20
7307;DHT22;3694;48.732;9.248;2023-05-29T02:34:25;9.40;99.30
7307;DHT22;3694;48.732;9.248;2023-05-29T02:36:51;9.40;99.50
7307;DHT22;3694;48.732;9.248;2023-05-29T02:39:20;9.40;99.50
7307;DHT22;3694;48.732;9.248;2023-05-29T02:41:46;9.40;99.70
7307;DHT22;3694;48.732;9.248;2023-05-29T02:44:11;9.30;99.70
7307;DHT22;3694;48.732;9.248;2023-05-29T02:46:37;9.20;99.90
7307;DHT22;3694;48.732;9.248;2023-05-29T02:49:02;9.10;99.90
7307;DHT22;3694;48.732;9.248;2023-05-29T02:51:28;9.10;99.90
7307;DHT22;3694;48.732;9.248;2023-05-29T02:53:54;8.90;99.90
7307;DHT22;3694;48.732;9.248;2023-05-29T02:56:19;8.90;99.90
7307;DHT22;3694;48.732;9.248;2023-05-29T02:58:52;8.90;99.90
7307;DHT22;3694;48.732;9.248;2023-05-29T03:01:17;8.80;99.90
7307;DHT22;3694;48.732;9.248;2023-05-29T03:03:43;8.80;99.90
7307;DHT22;3694;48.732;9.248;2023-05-29T03:06:09;8.70;99.90
7307;DHT22;3694;48.732;9.248;2023-05-29T03:08:35;8.80;99.90
7307;DHT22;3694;48.732;9.248;2023-05-29T03:11:06;8.80;99.90
7307;DHT22;3694;48.732;9.248;2023-05-29T03:13:32;8.80;99.90
7307;DHT22;3694;48.732;9.248;2023-05-29T03:15:59;8.70;99.90
7307;DHT22;3694;48.732;9.248;2023-05-29T03:18:25;8.70;99.90
7307;DHT22;3694;48.732;9.248;2023-05-29T03:20:50;8.60;99.90
7307;DHT22;3694;48.732;9.248;2023-05-29T03:23:16;8.60;99.90
7307;DHT22;3694;48.732;9.248;2023-05-29T03:25:41;8.60;99.90
7307;DHT22;3694;48.732;9.248;2023-05-29T03:28:07;8.50;99.90
7307;DHT22;3694;48.732;9.248;2023-05-29T03:30:33;8.50;99.90
7307;DHT22;3694;48.732;9.248;2023-05-29T03:32:59;8.50;99.90
7307;DHT22;3694;48.732;9.248;2023-05-29T03:35:29;8.60;99.90
7307;DHT22;3694;48.732;9.248;2023-05-29T03:37:54;8.60;99.90
7307;DHT22;3694;48.732;9.248;2023-05-29T03:40:20;8.70;99.90
7307;DHT22;3694;48.732;9.248;2023-05-29T03:42:45;8.90;99.90
7307;DHT22;3694;48.732;9.248;2023-05-29T03:45:11;8.90;99.90
7307;DHT22;3694;48.732;9.248;2023-05-29T03:47:36;9.10;99.90
7307;DHT22;3694;48.732;9.248;2023-05-29T03:50:02;9.00;99.90
7307;DHT22;3694;48.732;9.248;2023-05-29T03:52:27;9.00;99.90
7307;DHT22;3694;48.732;9.248;2023-05-29T03:54:53;9.00;99.90
7307;DHT22;3694;48.732;9.248;2023-05-29T03:57:18;9.00;99.90
7307;DHT22;3694;48.732;9.248;2023-05-29T03:59:44;9.10;99.90
7307;DHT22;3694;48.732;9.248;2023-05-29T04:02:09;9.20;99.90
7307;DHT22;3694;48.732;9.248;2023-05-29T04:04:35;9.20;99.90
7307;DHT22;3694;48.732;9.248;2023-05-29T04:07:01;9.50;99.90
7307;DHT22;3694;48.732;9.248;2023-05-29T04:09:26;9.40;99.90
7307;DHT22;3694;48.732;9.248;2023-05-29T04:11:52;9.50;99.90
7307;DHT22;3694;48.732;9.248;2023-05-29T04:14:17;9.60;99.90
7307;DHT22;3694;48.732;9.248;2023-05-29T04:16:43;9.80;99.90
7307;DHT22;3694;48.732;9.248;2023-05-29T04:19:08;10.00;99.90
7307;DHT22;3694;48.732;9.248;2023-05-29T04:21:34;10.30;99.90
7307;DHT22;3694;48.732;9.248;2023-05-29T04:24:00;10.40;99.90
7307;DHT22;3694;48.732;9.248;2023-05-29T04:26:25;10.50;99.90
7307;DHT22;3694;48.732;9.248;2023-05-29T04:28:54;10.60;99.90
7307;DHT22;3694;48.732;9.248;2023-05-29T04:31:25;10.80;99.90
7307;DHT22;3694;48.732;9.248;2023-05-29T04:33:54;11.00;99.90
7307;DHT22;3694;48.732;9.248;2023-05-29T04:36:23;11.10;99.90
7307;DHT22;3694;48.732;9.248;2023-05-29T04:38:53;11.20;99.90
7307;DHT22;3694;48.732;9.248;2023-05-29T04:41:19;11.40;99.90
7307;DHT22;3694;48.732;9.248;2023-05-29T04:43:49;11.50;99.90
7307;DHT22;3694;48.732;9.248;2023-05-29T04:46:15;11.70;99.90
7307;DHT22;3694;48.732;9.248;2023-05-29T04:48:40;11.80;99.90
7307;DHT22;3694;48.732;9.248;2023-05-29T04:51:09;12.00;99.90
7307;DHT22;3694;48.732;9.248;2023-05-29T04:53:38;12.30;99.90
7307;DHT22;3694;48.732;9.248;2023-05-29T04:56:03;12.40;99.90
7307;DHT22;3694;48.732;9.248;2023-05-29T04:58:29;12.50;99.60
7307;DHT22;3694;48.732;9.248;2023-05-29T05:00:54;12.70;99.30
7307;DHT22;3694;48.732;9.248;2023-05-29T05:03:23;12.80;98.70
7307;DHT22;3694;48.732;9.248;2023-05-29T05:05:49;12.90;98.80
7307;DHT22;3694;48.732;9.248;2023-05-29T05:08:15;13.10;98.30
7307;DHT22;3694;48.732;9.248;2023-05-29T05:10:41;13.20;98.10
7307;DHT22;3694;48.732;9.248;2023-05-29T05:13:06;13.50;97.80
7307;DHT22;3694;48.732;9.248;2023-05-29T05:15:32;13.80;97.20
7307;DHT22;3694;48.732;9.248;2023-05-29T05:17:58;14.70;96.60
7307;DHT22;3694;48.732;9.248;2023-05-29T05:20:23;15.70;95.40
7307;DHT22;3694;48.732;9.248;2023-05-29T05:22:49;16.70;93.70
7307;DHT22;3694;48.732;9.248;2023-05-29T05:25:14;17.60;91.90
7307;DHT22;3694;48.732;9.248;2023-05-29T05:27:40;18.10;91.10
7307;DHT22;3694;48.732;9.248;2023-05-29T05:30:06;18.70;90.20
7307;DHT22;3694;48.732;9.248;2023-05-29T05:32:32;19.10;88.00
7307;DHT22;3694;48.732;9.248;2023-05-29T05:34:57;19.40;87.90
7307;DHT22;3694;48.732;9.248;2023-05-29T05:37:23;19.80;85.70
7307;DHT22;3694;48.732;9.248;2023-05-29T05:39:49;20.10;83.90
7307;DHT22;3694;48.732;9.248;2023-05-29T05:42:16;20.40;82.50
7307;DHT22;3694;48.732;9.248;2023-05-29T05:44:41;20.80;80.60
7307;DHT22;3694;48.732;9.248;2023-05-29T05:47:07;20.90;81.00
7307;DHT22;3694;48.732;9.248;2023-05-29T05:49:33;21.50;80.70
7307;DHT22;3694;48.732;9.248;2023-05-29T05:51:58;21.80;80.70
7307;DHT22;3694;48.732;9.248;2023-05-29T05:54:24;22.30;77.30
7307;DHT22;3694;48.732;9.248;2023-05-29T05:56:50;22.20;74.90
7307;DHT22;3694;48.732;9.248;2023-05-29T05:59:15;22.40;74.90
7307;DHT22;3694;48.732;9.248;2023-05-29T06:01:41;22.80;74.10
7307;DHT22;3694;48.732;9.248;2023-05-29T06:04:07;22.60;72.80
7307;DHT22;3694;48.732;9.248;2023-05-29T06:06:32;23.00;70.90
7307;DHT22;3694;48.732;9.248;2023-05-29T06:08:58;22.70;71.30
7307;DHT22;3694;48.732;9.248;2023-05-29T06:11:24;22.90;70.40
7307;DHT22;3694;48.732;9.248;2023-05-29T06:13:51;22.80;70.50
7307;DHT22;3694;48.732;9.248;2023-05-29T06:16:17;23.20;70.20
7307;DHT22;3694;48.732;9.248;2023-05-29T06:18:43;23.20;69.80
7307;DHT22;3694;48.732;9.248;2023-05-29T06:21:11;23.20;70.90
7307;DHT22;3694;48.732;9.248;2023-05-29T06:23:37;22.90;71.50
7307;DHT22;3694;48.732;9.248;2023-05-29T06:26:02;22.90;71.40
7307;DHT22;3694;48.732;9.248;2023-05-29T06:28:29;22.70;70.10
7307;DHT22;3694;48.732;9.248;2023-05-29T06:30:55;22.50;70.70
7307;DHT22;3694;48.732;9.248;2023-05-29T06:33:20;22.60;71.50
7307;DHT22;3694;48.732;9.248;2023-05-29T06:35:47;22.80;70.80
7307;DHT22;3694;48.732;9.248;2023-05-29T06:38:13;22.70;72.50
7307;DHT22;3694;48.732;9.248;2023-05-29T06:40:39;22.70;72.60
7307;DHT22;3694;48.732;9.248;2023-05-29T06:43:04;22.70;70.90
7307;DHT22;3694;48.732;9.248;2023-05-29T06:45:30;23.00;71.80
7307;DHT22;3694;48.732;9.248;2023-05-29T06:47:56;23.20;72.60
7307;DHT22;3694;48.732;9.248;2023-05-29T06:50:22;23.40;70.50
7307;DHT22;3694;48.732;9.248;2023-05-29T06:52:47;23.30;70.40
7307;DHT22;3694;48.732;9.248;2023-05-29T06:55:13;23.40;70.60
7307;DHT22;3694;48.732;9.248;2023-05-29T06:57:38;23.30;70.90
7307;DHT22;3694;48.732;9.248;2023-05-29T07:00:05;23.30;71.20
7307;DHT22;3694;48.732;9.248;2023-05-29T07:02:32;23.20;69.70
7307;DHT22;3694;48.732;9.248;2023-05-29T07:04:57;23.50;70.50
7307;DHT22;3694;48.732;9.248;2023-05-29T07:07:23;23.70;69.70
7307;DHT22;3694;48.732;9.248;2023-05-29T07:09:48;23.80;70.30
7307;DHT22;3694;48.732;9.248;2023-05-29T07:12:14;23.70;70.90
7307;DHT22;3694;48.732;9.248;2023-05-29T07:14:39;23.80;69.20
7307;DHT22;3694;48.732;9.248;2023-05-29T07:17:05;23.60;68.30
7307;DHT22;3694;48.732;9.248;2023-05-29T07:19:31;23.20;68.00
7307;DHT22;3694;48.732;9.248;2023-05-29T07:21:59;23.10;68.70
7307;DHT22;3694;48.732;9.248;2023-05-29T07:24:24;23.10;69.50
7307;DHT22;3694;48.732;9.248;2023-05-29T07:26:50;23.40;69.80
7307;DHT22;3694;48.732;9.248;2023-05-29T07:29:16;23.40;69.30
7307;DHT22;3694;48.732;9.248;2023-05-29T07:31:43;23.50;68.60
7307;DHT22;3694;48.732;9.248;2023-05-29T07:34:09;23.40;68.30
7307;DHT22;3694;48.732;9.248;2023-05-29T07:36:35;23.20;69.00
7307;DHT22;3694;48.732;9.248;2023-05-29T07:39:01;23.00;67.60
7307;DHT22;3694;48.732;9.248;2023-05-29T07:41:27;22.70;65.90
7307;DHT22;3694;48.732;9.248;2023-05-29T07:43:53;22.80;67.70
7307;DHT22;3694;48.732;9.248;2023-05-29T07:46:20;23.10;70.30
7307;DHT22;3694;48.732;9.248;2023-05-29T07:48:46;23.20;66.70
7307;DHT22;3694;48.732;9.248;2023-05-29T07:51:12;23.10;68.30
7307;DHT22;3694;48.732;9.248;2023-05-29T07:53:38;23.90;69.60
7307;DHT22;3694;48.732;9.248;2023-05-29T07:56:04;24.00;66.70
7307;DHT22;3694;48.732;9.248;2023-05-29T07:58:29;24.10;67.60
7307;DHT22;3694;48.732;9.248;2023-05-29T08:00:55;24.20;66.40
7307;DHT22;3694;48.732;9.248;2023-05-29T08:03:20;24.10;65.50
7307;DHT22;3694;48.732;9.248;2023-05-29T08:05:46;24.00;67.90
7307;DHT22;3694;48.732;9.248;2023-05-29T08:08:12;24.00;67.00
7307;DHT22;3694;48.732;9.248;2023-05-29T08:10:38;24.60;67.30
7307;DHT22;3694;48.732;9.248;2023-05-29T08:13:04;24.70;66.90
7307;DHT22;3694;48.732;9.248;2023-05-29T08:15:29;24.40;65.60
7307;DHT22;3694;48.732;9.248;2023-05-29T08:17:56;24.50;65.60
7307;DHT22;3694;48.732;9.248;2023-05-29T08:20:22;24.20;67.10
7307;DHT22;3694;48.732;9.248;2023-05-29T08:22:47;24.30;67.60
7307;DHT22;3694;48.732;9.248;2023-05-29T08:25:13;24.80;69.90
7307;DHT22;3694;48.732;9.248;2023-05-29T08:27:38;24.60;68.70
7307;DHT22;3694;48.732;9.248;2023-05-29T08:30:04;25.00;67.20
7307;DHT22;3694;48.732;9.248;2023-05-29T08:32:30;25.40;67.10
7307;DHT22;3694;48.732;9.248;2023-05-29T08:34:55;25.30;67.30
7307;DHT22;3694;48.732;9.248;2023-05-29T08:37:21;25.70;66.70
7307;DHT22;3694;48.732;9.248;2023-05-29T08:39:46;25.70;65.90
7307;DHT22;3694;48.732;9.248;2023-05-29T08:42:21;25.30;64.90
7307;DHT22;3694;48.732;9.248;2023-05-29T08:44:48;24.90;65.70
7307;DHT22;3694;48.732;9.248;2023-05-29T08:47:16;25.00;66.20
7307;DHT22;3694;48.732;9.248;2023-05-29T08:49:52;25.20;66.60
7307;DHT22;3694;48.732;9.248;2023-05-29T08:52:24;25.30;64.60
7307;DHT22;3694;48.732;9.248;2023-05-29T08:54:52;25.00;65.10
7307;DHT22;3694;48.732;9.248;2023-05-29T08:57:17;25.30;67.90
7307;DHT22;3694;48.732;9.248;2023-05-29T08:59:44;25.30;67.10
7307;DHT22;3694;48.732;9.248;2023-05-29T09:02:14;25.60;67.90
7307;DHT22;3694;48.732;9.248;2023-05-29T09:04:44;25.60;64.80
7307;DHT22;3694;48.732;9.248;2023-05-29T09:07:12;25.40;66.60
7307;DHT22;3694;48.732;9.248;2023-05-29T09:09:38;25.40;68.40
7307;DHT22;3694;48.732;9.248;2023-05-29T09:12:04;25.50;65.50
7307;DHT22;3694;48.732;9.248;2023-05-29T09:14:36;25.40;66.30
7307;DHT22;3694;48.732;9.248;2023-05-29T09:17:03;25.90;68.30
7307;DHT22;3694;48.732;9.248;2023-05-29T09:19:32;26.10;67.50
7307;DHT22;3694;48.732;9.248;2023-05-29T09:22:05;25.70;65.90
7307;DHT22;3694;48.732;9.248;2023-05-29T09:24:35;25.70;65.40
7307;DHT22;3694;48.732;9.248;2023-05-29T09:27:08;25.90;68.50
7307;DHT22;3694;48.732;9.248;2023-05-29T09:29:45;26.00;72.00
7307;DHT22;3694;48.732;9.248;2023-05-29T09:32:13;26.00;67.40
7307;DHT22;3694;48.732;9.248;2023-05-29T09:34:39;26.10;69.00
7307;DHT22;3694;48.732;9.248;2023-05-29T09:37:06;25.90;67.30
7307;DHT22;3694;48.732;9.248;2023-05-29T09:42:06;26.00;65.10
7307;DHT22;3694;48.732;9.248;2023-05-29T09:44:32;26.00;68.20
7307;DHT22;3694;48.732;9.248;2023-05-29T09:46:59;25.80;68.10
7307;DHT22;3694;48.732;9.248;2023-05-29T09:49:25;25.70;67.30
7307;DHT22;3694;48.732;9.248;2023-05-29T09:51:56;25.80;67.80
7307;DHT22;3694;48.732;9.248;2023-05-29T09:54:21;25.80;69.00
7307;DHT22;3694;48.732;9.248;2023-05-29T09:56:47;25.70;66.20
7307;DHT22;3694;48.732;9.248;2023-05-29T09:59:14;25.50;66.30
7307;DHT22;3694;48.732;9.248;2023-05-29T10:01:44;25.50;65.90
7307;DHT22;3694;48.732;9.248;2023-05-29T10:04:10;25.40;65.00
7307;DHT22;3694;48.732;9.248;2023-05-29T10:06:38;25.60;66.60
7307;DHT22;3694;48.732;9.248;2023-05-29T10:09:06;25.90;64.70
7307;DHT22;3694;48.732;9.248;2023-05-29T10:11:34;25.70;62.30
7307;DHT22;3694;48.732;9.248;2023-05-29T10:14:02;25.60;68.00
7307;DHT22;3694;48.732;9.248;2023-05-29T10:16:29;25.70;63.80
7307;DHT22;3694;48.732;9.248;2023-05-29T10:18:59;26.00;65.50
7307;DHT22;3694;48.732;9.248;2023-05-29T10:21:28;25.90;67.50
7307;DHT22;3694;48.732;9.248;2023-05-29T10:23:54;26.00;65.00
7307;DHT22;3694;48.732;9.248;2023-05-29T10:26:22;26.00;62.90
7307;DHT22;3694;48.732;9.248;2023-05-29T10:29:08;25.90;64.60
7307;DHT22;3694;48.732;9.248;2023-05-29T10:40:06;26.30;62.70
7307;DHT22;3694;48.732;9.248;2023-05-29T10:42:49;26.40;61.80
7307;DHT22;3694;48.732;9.248;2023-05-29T10:50:46;26.70;63.30
7307;DHT22;3694;48.732;9.248;2023-05-29T10:53:17;26.50;61.10
7307;DHT22;3694;48.732;9.248;2023-05-29T10:55:44;26.20;61.70
7307;DHT22;3694;48.732;9.248;2023-05-29T10:58:14;26.10;60.60
7307;DHT22;3694;48.732;9.248;2023-05-29T11:00:40;26.50;59.90
7307;DHT22;3694;48.732;9.248;2023-05-29T11:03:09;26.50;63.00
7307;DHT22;3694;48.732;9.248;2023-05-29T11:05:59;26.30;60.50
7307;DHT22;3694;48.732;9.248;2023-05-29T11:08:35;26.40;62.10
7307;DHT22;3694;48.732;9.248;2023-05-29T11:11:01;26.20;59.60
7307;DHT22;3694;48.732;9.248;2023-05-29T11:13:37;26.20;63.00
7307;DHT22;3694;48.732;9.248;2023-05-29T11:16:13;25.60;58.70
7307;DHT22;3694;48.732;9.248;2023-05-29T11:18:44;25.60;60.20
7307;DHT22;3694;48.732;9.248;2023-05-29T11:24:25;25.30;59.20
7307;DHT22;3694;48.732;9.248;2023-05-29T11:26:56;25.40;60.50
7307;DHT22;3694;48.732;9.248;2023-05-29T11:29:23;25.40;59.40
7307;DHT22;3694;48.732;9.248;2023-05-29T11:31:55;25.30;56.40
7307;DHT22;3694;48.732;9.248;2023-05-29T11:34:23;25.30;60.70
7307;DHT22;3694;48.732;9.248;2023-05-29T11:36:52;25.40;57.90
7307;DHT22;3694;48.732;9.248;2023-05-29T11:39:18;25.50;59.20
7307;DHT22;3694;48.732;9.248;2023-05-29T11:41:44;25.50;55.90
7307;DHT22;3694;48.732;9.248;2023-05-29T11:44:13;25.40;54.10
7307;DHT22;3694;48.732;9.248;2023-05-29T11:46:39;25.60;57.60
7307;DHT22;3694;48.732;9.248;2023-05-29T11:49:05;25.50;54.60
7307;DHT22;3694;48.732;9.248;2023-05-29T11:51:31;25.80;58.00
7307;DHT22;3694;48.732;9.248;2023-05-29T11:53:56;25.80;57.00
7307;DHT22;3694;48.732;9.248;2023-05-29T11:56:29;25.80;53.90
7307;DHT22;3694;48.732;9.248;2023-05-29T11:58:58;25.70;54.70
7307;DHT22;3694;48.732;9.248;2023-05-29T12:01:27;25.80;52.70
7307;DHT22;3694;48.732;9.248;2023-05-29T12:03:53;25.70;53.10
7307;DHT22;3694;48.732;9.248;2023-05-29T12:06:32;25.70;51.90
7307;DHT22;3694;48.732;9.248;2023-05-29T12:08:59;25.90;53.30
7307;DHT22;3694;48.732;9.248;2023-05-29T12:11:24;26.20;55.80
7307;DHT22;3694;48.732;9.248;2023-05-29T12:14:00;25.90;52.30
7307;DHT22;3694;48.732;9.248;2023-05-29T12:16:28;25.90;55.10
7307;DHT22;3694;48.732;9.248;2023-05-29T12:18:55;26.10;53.40
7307;DHT22;3694;48.732;9.248;2023-05-29T12:21:22;26.00;53.60
7307;DHT22;3694;48.732;9.248;2023-05-29T12:23:48;25.80;51.40
7307;DHT22;3694;48.732;9.248;2023-05-29T12:26:13;26.00;51.80
7307;DHT22;3694;48.732;9.248;2023-05-29T12:28:44;25.90;52.20
7307;DHT22;3694;48.732;9.248;2023-05-29T12:31:11;25.80;56.70
7307;DHT22;3694;48.732;9.248;2023-05-29T12:33:42;25.70;53.50
7307;DHT22;3694;48.732;9.248;2023-05-29T12:36:09;26.00;52.00
7307;DHT22;3694;48.732;9.248;2023-05-29T12:38:49;25.90;51.50
7307;DHT22;3694;48.732;9.248;2023-05-29T12:41:25;26.00;54.50
7307;DHT22;3694;48.732;9.248;2023-05-29T12:43:53;26.10;53.10
7307;DHT22;3694;48.732;9.248;2023-05-29T12:46:20;26.00;54.20
7307;DHT22;3694;48.732;9.248;2023-05-29T12:48:46;26.00;53.50
7307;DHT22;3694;48.732;9.248;2023-05-29T12:51:11;26.10;53.70
7307;DHT22;3694;48.732;9.248;2023-05-29T12:53:37;25.80;56.50
7307;DHT22;3694;48.732;9.248;2023-05-29T12:56:02;25.90;50.50
7307;DHT22;3694;48.732;9.248;2023-05-29T12:58:28;26.00;54.40
7307;DHT22;3694;48.732;9.248;2023-05-29T13:00:53;26.30;54.40
7307;DHT22;3694;48.732;9.248;2023-05-29T13:03:22;26.50;51.40
7307;DHT22;3694;48.732;9.248;2023-05-29T13:05:51;26.60;51.20
7307;DHT22;3694;48.732;9.248;2023-05-29T13:08:18;26.20;50.10
7307;DHT22;3694;48.732;9.248;2023-05-29T13:10:44;25.90;51.50
7307;DHT22;3694;48.732;9.248;2023-05-29T13:13:10;25.80;52.70
7307;DHT22;3694;48.732;9.248;2023-05-29T13:15:37;26.00;50.10
7307;DHT22;3694;48.732;9.248;2023-05-29T13:18:03;26.20;50.20
7307;DHT22;3694;48.732;9.248;2023-05-29T13:20:29;26.50;50.20
7307;DHT22;3694;48.732;9.248;2023-05-29T13:22:57;26.50;49.60
7307;DHT22;3694;48.732;9.248;2023-05-29T13:25:22;26.60;50.70
7307;DHT22;3694;48.732;9.248;2023-05-29T13:27:51;26.70;51.10
7307;DHT22;3694;48.732;9.248;2023-05-29T13:30:17;26.30;50.30
7307;DHT22;3694;48.732;9.248;2023-05-29T13:32:43;25.90;50.10
7307;DHT22;3694;48.732;9.248;2023-05-29T13:35:09;25.90;50.80
7307;DHT22;3694;48.732;9.248;2023-05-29T13:37:36;26.00;50.80
7307;DHT22;3694;48.732;9.248;2023-05-29T13:40:02;26.10;49.70
7307;DHT22;3694;48.732;9.248;2023-05-29T13:42:29;26.00;50.20
7307;DHT22;3694;48.732;9.248;2023-05-29T13:44:54;26.10;47.00
7307;DHT22;3694;48.732;9.248;2023-05-29T13:47:20;26.20;49.90
7307;DHT22;3694;48.732;9.248;2023-05-29T13:49:45;26.00;49.10
7307;DHT22;3694;48.732;9.248;2023-05-29T13:52:11;26.00;50.80
7307;DHT22;3694;48.732;9.248;2023-05-29T13:54:36;26.20;47.50
7307;DHT22;3694;48.732;9.248;2023-05-29T13:57:03;26.10;49.50
7307;DHT22;3694;48.732;9.248;2023-05-29T13:59:33;26.10;48.10
7307;DHT22;3694;48.732;9.248;2023-05-29T14:01:59;26.00;49.00
7307;DHT22;3694;48.732;9.248;2023-05-29T14:04:25;26.00;49.40
7307;DHT22;3694;48.732;9.248;2023-05-29T14:06:51;25.90;49.10
7307;DHT22;3694;48.732;9.248;2023-05-29T14:09:17;25.80;48.20
7307;DHT22;3694;48.732;9.248;2023-05-29T14:11:47;25.80;47.40
7307;DHT22;3694;48.732;9.248;2023-05-29T14:14:13;26.00;47.60
7307;DHT22;3694;48.732;9.248;2023-05-29T14:16:38;26.30;47.50
7307;DHT22;3694;48.732;9.248;2023-05-29T14:19:04;26.60;48.00
7307;DHT22;3694;48.732;9.248;2023-05-29T14:21:29;26.60;49.40
7307;DHT22;3694;48.732;9.248;2023-05-29T14:23:55;26.50;48.50
7307;DHT22;3694;48.732;9.248;2023-05-29T14:26:21;26.20;47.00
7307;DHT22;3694;48.732;9.248;2023-05-29T14:28:46;26.00;46.50
7307;DHT22;3694;48.732;9.248;2023-05-29T14:31:12;25.90;49.50
7307;DHT22;3694;48.732;9.248;2023-05-29T14:33:37;26.00;48.40
7307;DHT22;3694;48.732;9.248;2023-05-29T14:36:03;25.80;49.10
7307;DHT22;3694;48.732;9.248;2023-05-29T14:38:29;26.00;47.30
7307;DHT22;3694;48.732;9.248;2023-05-29T14:40:54;26.00;48.30
7307;DHT22;3694;48.732;9.248;2023-05-29T14:43:20;25.90;48.40
7307;DHT22;3694;48.732;9.248;2023-05-29T14:45:46;25.90;49.30
7307;DHT22;3694;48.732;9.248;2023-05-29T14:48:12;25.90;50.40
7307;DHT22;3694;48.732;9.248;2023-05-29T14:50:37;25.90;46.90
7307;DHT22;3694;48.732;9.248;2023-05-29T14:53:03;25.90;48.30
7307;DHT22;3694;48.732;9.248;2023-05-29T14:55:29;25.70;47.20
7307;DHT22;3694;48.732;9.248;2023-05-29T14:57:57;25.60;48.20
7307;DHT22;3694;48.732;9.248;2023-05-29T15:00:23;25.50;47.90
7307;DHT22;3694;48.732;9.248;2023-05-29T15:02:48;25.20;46.70
7307;DHT22;3694;48.732;9.248;2023-05-29T15:05:14;25.20;47.20
7307;DHT22;3694;48.732;9.248;2023-05-29T15:07:39;25.20;49.80
7307;DHT22;3694;48.732;9.248;2023-05-29T15:10:05;25.40;48.90
7307;DHT22;3694;48.732;9.248;2023-05-29T15:12:32;25.30;48.30
7307;DHT22;3694;48.732;9.248;2023-05-29T15:14:58;24.90;48.40
7307;DHT22;3694;48.732;9.248;2023-05-29T15:17:23;25.00;48.20
7307;DHT22;3694;48.732;9.248;2023-05-29T15:19:49;24.80;48.50
7307;DHT22;3694;48.732;9.248;2023-05-29T15:22:14;24.90;47.20
7307;DHT22;3694;48.732;9.248;2023-05-29T15:24:40;24.90;48.50
7307;DHT22;3694;48.732;9.248;2023-05-29T15:27:06;24.90;50.50
7307;DHT22;3694;48.732;9.248;2023-05-29T15:29:35;24.90;50.40
7307;DHT22;3694;48.732;9.248;2023-05-29T15:32:01;24.80;50.00
7307;DHT22;3694;48.732;9.248;2023-05-29T15:34:27;24.70;50.60
7307;DHT22;3694;48.732;9.248;2023-05-29T15:36:53;24.60;49.70
7307;DHT22;3694;48.732;9.248;2023-05-29T15:39:18;24.60;49.00
7307;DHT22;3694;48.732;9.248;2023-05-29T15:41:44;24.60;48.80
7307;DHT22;3694;48.732;9.248;2023-05-29T15:44:10;24.50;49.00
7307;DHT22;3694;48.732;9.248;2023-05-29T15:46:35;24.40;51.20
7307;DHT22;3694;48.732;9.248;2023-05-29T15:49:01;24.30;49.30
7307;DHT22;3694;48.732;9.248;2023-05-29T15:51:26;24.10;50.60
7307;DHT22;3694;48.732;9.248;2023-05-29T15:53:53;24.10;49.00
7307;DHT22;3694;48.732;9.248;2023-05-29T15:56:19;24.10;49.00
7307;DHT22;3694;48.732;9.248;2023-05-29T15:58:50;24.00;49.40
7307;DHT22;3694;48.732;9.248;2023-05-29T16:01:15;23.90;50.70
7307;DHT22;3694;48.732;9.248;2023-05-29T16:03:41;24.00;51.20
7307;DHT22;3694;48.732;9.248;2023-05-29T16:06:06;23.90;49.20
7307;DHT22;3694;48.732;9.248;2023-05-29T16:08:32;23.70;49.70
7307;DHT22;3694;48.732;9.248;2023-05-29T16:10:57;23.60;50.10
7307;DHT22;3694;48.732;9.248;2023-05-29T16:13:23;23.60;51.50
7307;DHT22;3694;48.732;9.248;2023-05-29T16:15:49;23.50;50.00
7307;DHT22;3694;48.732;9.248;2023-05-29T16:18:14;23.50;52.60
7307;DHT22;3694;48.732;9.248;2023-05-29T16:20:40;23.60;50.70
7307;DHT22;3694;48.732;9.248;2023-05-29T16:23:05;23.60;50.10
7307;DHT22;3694;48.732;9.248;2023-05-29T16:25:31;23.50;51.30
7307;DHT22;3694;48.732;9.248;2023-05-29T16:27:56;23.50;50.60
7307;DHT22;3694;48.732;9.248;2023-05-29T16:30:22;23.40;52.10
7307;DHT22;3694;48.732;9.248;2023-05-29T16:32:51;23.30;51.70
7307;DHT22;3694;48.732;9.248;2023-05-29T16:35:17;23.20;50.50